Time;durP1;ratioP1;P1;durP2;ratioP2;P2;SDS_P1;SDS_P2;PMS_P1;PMS_P2;Temp;Humidity;BMP_temperature;BMP_pressure;BME280_temperature;BME280_humidity;BME280_pressure;Samples;Min_cycle;Max_cycle;Signal;HPM_P1;HPM_P2
2022/10/23 00:02:02;;;;;;;;;;;;;;;23.25;65.18;97187.67;580704;244;65615;-71
2022/10/23 00:04:30;;;;;;;;;;;;;;;23.26;66.80;97187.38;580741;244;63819;-71
2022/10/23 00:06:57;;;;;;;;;;;;;;;23.25;63.46;97191.16;580700;244;65844;-71
2022/10/23 00:09:24;;;;;;;;;;;;;;;23.26;65.16;97191.95;580770;244;64678;-71
2022/10/23 00:11:52;;;;;;;;;;;;;;;23.24;64.05;97194.10;580744;244;62828;-70
2022/10/23 00:14:21;;;;;;;;;;;;;;;23.24;66.06;97202.14;580732;244;64962;-71
2022/10/23 00:16:49;;;;;;;;;;;;;;;23.22;63.68;97202.44;580708;244;68271;-70
2022/10/23 00:19:17;;;;;;;;;;;;;;;23.24;65.52;97197.61;580748;244;63826;-70
2022/10/23 00:21:44;;;;;;;;;;;;;;;23.22;63.01;97202.44;580716;244;68046;-70
2022/10/23 00:24:12;;;;;;;;;;;;;;;23.24;65.42;97205.66;580738;244;64737;-70
2022/10/23 00:26:40;;;;;;;;;;;;;;;23.22;64.57;97207.01;580729;244;62915;-70
2022/10/23 00:29:07;;;;;;;;;;;;;;;23.22;66.59;97213.17;580695;244;64981;-70
2022/10/23 00:31:35;;;;;;;;;;;;;;;23.22;66.45;97210.48;580758;244;66879;-70
2022/10/23 00:34:06;;;;;;;;;;;;;;;23.20;64.95;97215.33;580728;244;65085;-70
2022/10/23 00:36:34;;;;;;;;;;;;;;;23.20;64.75;97215.33;580806;244;44007;-70
2022/10/23 00:39:02;;;;;;;;;;;;;;;23.19;65.52;97220.95;580745;244;67107;-70
2022/10/23 00:41:31;;;;;;;;;;;;;;;23.19;64.41;97221.77;580721;244;62794;-70
2022/10/23 00:44:03;;;;;;;;;;;;;;;23.20;66.25;97222.57;580722;244;65143;-70
2022/10/23 00:46:31;;;;;;;;;;;;;;;23.20;67.81;97230.61;580649;244;66928;-70
2022/10/23 00:48:59;;;;;;;;;;;;;;;23.19;67.10;97229.82;580739;244;63075;-70
2022/10/23 00:51:28;;;;;;;;;;;;;;;23.18;65.76;97227.41;580692;244;67151;-70
2022/10/23 00:53:57;;;;;;;;;;;;;;;23.17;65.52;97226.61;580725;244;66938;-69
2022/10/23 00:56:25;;;;;;;;;;;;;;;23.17;67.52;97221.25;580732;244;65255;-70
2022/10/23 00:58:53;;;;;;;;;;;;;;;23.17;64.98;97225.81;580738;244;66910;-70
2022/10/23 01:01:21;;;;;;;;;;;;;;;23.17;66.14;97231.97;580673;244;64741;-70
2022/10/23 01:03:50;;;;;;;;;;;;;;;23.17;66.40;97231.97;580739;244;62936;-70
2022/10/23 01:06:19;;;;;;;;;;;;;;;23.16;63.29;97234.92;580714;244;67324;-70
2022/10/23 01:08:49;;;;;;;;;;;;;;;23.15;66.27;97228.77;580739;244;64857;-71
2022/10/23 01:11:18;;;;;;;;;;;;;;;23.15;66.25;97234.13;580688;244;64884;-70
2022/10/23 01:13:48;;;;;;;;;;;;;;;23.14;66.03;97232.53;580630;244;67071;-70
2022/10/23 01:16:20;;;;;;;;;;;;;;;23.14;64.88;97239.78;580717;244;66793;-71
2022/10/23 01:18:58;;;;;;;;;;;;;;;23.13;65.95;97244.31;580729;244;64985;-71
2022/10/23 01:21:30;;;;;;;;;;;;;;;23.13;65.81;97241.64;580623;244;65002;-71
2022/10/23 01:23:59;;;;;;;;;;;;;;;23.12;65.52;97250.77;580622;244;64566;-71
2022/10/23 01:26:34;;;;;;;;;;;;;;;23.11;64.47;97243.81;580455;244;66237;-71
2022/10/23 01:29:06;;;;;;;;;;;;;;;23.11;66.23;97251.03;580722;244;67139;-70
2022/10/23 01:31:36;;;;;;;;;;;;;;;23.12;66.96;97258.02;580611;244;66491;-71
2022/10/23 01:34:05;;;;;;;;;;;;;;;23.11;66.86;97253.72;580529;244;62506;-71
2022/10/23 01:36:34;;;;;;;;;;;;;;;23.11;66.59;97249.18;580662;244;67120;-70
2022/10/23 01:39:06;;;;;;;;;;;;;;;23.10;65.63;97260.97;580717;244;64880;-70
2022/10/23 01:41:44;;;;;;;;;;;;;;;23.09;65.80;97267.41;580735;244;65058;-71
2022/10/23 01:44:17;;;;;;;;;;;;;;;23.09;63.62;97267.41;580641;244;44301;-72
2022/10/23 01:46:46;;;;;;;;;;;;;;;23.10;66.16;97269.00;580729;244;64792;-72
2022/10/23 01:49:15;;;;;;;;;;;;;;;23.09;66.79;97283.50;580737;244;65112;-70
2022/10/23 01:51:44;;;;;;;;;;;;;;;23.08;66.16;97287.27;580719;244;63900;-70
2022/10/23 01:54:13;;;;;;;;;;;;;;;23.07;64.40;97287.53;580723;244;67328;-70
2022/10/23 01:56:43;;;;;;;;;;;;;;;23.08;65.85;97281.91;580681;244;65716;-71
2022/10/23 01:59:12;;;;;;;;;;;;;;;23.07;64.73;97288.33;580739;244;65971;-70
2022/10/23 02:01:41;;;;;;;;;;;;;;;23.08;66.69;97289.13;580664;244;64912;-70
2022/10/23 02:04:11;;;;;;;;;;;;;;;23.06;67.40;97297.46;580713;244;64996;-70
2022/10/23 02:06:38;;;;;;;;;;;;;;;23.06;65.62;97299.34;580739;244;64907;-70
2022/10/23 02:09:06;;;;;;;;;;;;;;;23.06;68.05;97316.23;580725;244;67400;-71
2022/10/23 02:11:36;;;;;;;;;;;;;;;23.04;66.55;97321.05;580713;244;64958;-71
2022/10/23 02:14:20;;;;;;;;;;;;;;;23.04;67.06;97329.89;580746;244;64889;-70
2022/10/23 02:16:52;;;;;;;;;;;;;;;23.03;65.85;97325.63;580465;244;64751;-70
2022/10/23 02:19:33;;;;;;;;;;;;;;;23.03;65.74;97322.94;580731;244;62818;-70
2022/10/23 02:22:16;;;;;;;;;;;;;;;23.02;66.00;97342.76;580732;243;48521;-69
2022/10/23 02:24:45;;;;;;;;;;;;;;;23.02;66.20;97336.60;580644;244;67562;-69
2022/10/23 02:27:14;;;;;;;;;;;;;;;23.03;67.16;97346.27;580612;244;65735;-70
2022/10/23 02:29:43;;;;;;;;;;;;;;;23.01;63.69;97337.69;580713;244;67165;-69
2022/10/23 02:32:13;;;;;;;;;;;;;;;23.02;67.02;97352.69;580709;244;64527;-70
2022/10/23 02:34:41;;;;;;;;;;;;;;;23.01;66.40;97364.50;580719;244;63080;-70
2022/10/23 02:37:09;;;;;;;;;;;;;;;23.01;65.96;97361.81;580709;244;67191;-70
2022/10/23 02:39:37;;;;;;;;;;;;;;;23.01;67.38;97359.14;580735;244;65353;-70
2022/10/23 02:42:06;;;;;;;;;;;;;;;22.99;65.99;97364.76;580733;244;63064;-70
2022/10/23 02:44:50;;;;;;;;;;;;;;;23.00;66.10;97373.63;580712;244;67300;-70
2022/10/23 02:47:22;;;;;;;;;;;;;;;22.99;66.80;97374.69;580557;244;67689;-70
2022/10/23 02:49:53;;;;;;;;;;;;;;;22.98;65.52;97389.17;580592;244;43794;-70
2022/10/23 02:52:25;;;;;;;;;;;;;;;22.98;66.14;97391.85;580548;244;67144;-70
2022/10/23 02:55:02;;;;;;;;;;;;;;;22.97;64.01;97403.63;580660;244;67308;-70
2022/10/23 02:57:34;;;;;;;;;;;;;;;22.98;67.45;97407.94;580658;244;65000;-70
2022/10/23 03:00:06;;;;;;;;;;;;;;;22.97;66.56;97414.35;580062;244;67160;-70
2022/10/23 03:02:35;;;;;;;;;;;;;;;22.97;64.70;97419.72;580620;244;66698;-70
2022/10/23 03:05:05;;;;;;;;;;;;;;;22.96;67.33;97437.68;580753;244;64934;-70
2022/10/23 03:07:33;;;;;;;;;;;;;;;22.96;64.80;97431.52;580719;244;66829;-70
2022/10/23 03:10:02;;;;;;;;;;;;;;;22.96;67.68;97437.68;580786;243;45493;-70
2022/10/23 03:12:30;;;;;;;;;;;;;;;22.96;65.87;97428.84;580690;244;62560;-70
2022/10/23 03:14:59;;;;;;;;;;;;;;;22.94;66.04;97429.07;580736;244;67170;-70
2022/10/23 03:17:26;;;;;;;;;;;;;;;22.96;65.92;97436.88;580744;244;64295;-70
2022/10/23 03:19:55;;;;;;;;;;;;;;;22.95;67.00;97432.58;580718;244;65016;-70
2022/10/23 03:22:23;;;;;;;;;;;;;;;22.94;66.65;97431.75;580732;244;64661;-70
2022/10/23 03:24:50;;;;;;;;;;;;;;;22.94;66.93;97441.67;580722;244;64697;-70
2022/10/23 03:27:18;;;;;;;;;;;;;;;22.93;64.07;97440.08;580714;244;62980;-70
2022/10/23 03:29:45;;;;;;;;;;;;;;;22.93;65.46;97442.77;580769;244;67450;-70
2022/10/23 03:32:14;;;;;;;;;;;;;;;22.93;65.72;97434.72;580783;244;66899;-70
2022/10/23 03:34:42;;;;;;;;;;;;;;;22.94;68.64;97441.67;580753;244;62787;-70
2022/10/23 03:37:09;;;;;;;;;;;;;;;22.93;65.72;97445.44;580760;244;67136;-70
2022/10/23 03:39:37;;;;;;;;;;;;;;;22.91;66.25;97451.06;580741;244;66852;-70
2022/10/23 03:42:05;;;;;;;;;;;;;;;22.90;67.09;97452.15;580774;244;62796;-70
2022/10/23 03:44:38;;;;;;;;;;;;;;;22.91;64.26;97458.30;580759;244;65230;-70
2022/10/23 03:47:02;;;;;;;;;;;;;;;22.93;67.44;97461.52;580678;243;67327;-70
2022/10/23 03:49:30;;;;;;;;;;;;;;;22.90;67.76;97456.70;580774;244;64907;-70
2022/10/23 03:51:59;;;;;;;;;;;;;;;22.91;65.56;97452.94;580805;243;44417;-70
2022/10/23 03:54:28;;;;;;;;;;;;;;;22.89;66.30;97460.45;580806;244;64362;-70
2022/10/23 03:56:56;;;;;;;;;;;;;;;22.89;66.73;97460.45;580781;244;63029;-70
2022/10/23 03:59:24;;;;;;;;;;;;;;;22.89;66.02;97465.80;580771;244;64993;-70
2022/10/23 04:01:51;;;;;;;;;;;;;;;22.88;66.76;97459.65;581632;243;67323;-70
2022/10/23 04:04:19;;;;;;;;;;;;;;;22.87;65.60;97474.13;582410;243;65057;-70
2022/10/23 04:06:46;;;;;;;;;;;;;;;22.88;66.63;97469.57;582379;243;65077;-70
2022/10/23 04:09:14;;;;;;;;;;;;;;;22.88;66.48;97478.41;582398;243;64716;-70
2022/10/23 04:11:42;;;;;;;;;;;;;;;22.86;65.54;97472.51;582412;243;65616;-70
2022/10/23 04:14:11;;;;;;;;;;;;;;;22.86;65.94;97474.39;582417;243;67100;-70
2022/10/23 04:16:38;;;;;;;;;;;;;;;22.86;65.05;97463.67;582411;243;64808;-70
2022/10/23 04:19:06;;;;;;;;;;;;;;;22.85;65.34;97470.92;582405;243;62878;-70
2022/10/23 04:21:34;;;;;;;;;;;;;;;22.85;65.43;97468.23;582334;243;67111;-70
2022/10/23 04:24:01;;;;;;;;;;;;;;;22.85;66.18;97467.44;582381;243;66838;-70
2022/10/23 04:26:29;;;;;;;;;;;;;;;22.85;65.10;97473.59;582339;243;63669;-70
2022/10/23 04:28:56;;;;;;;;;;;;;;;22.85;67.74;97475.48;582336;243;67443;-70
2022/10/23 04:31:24;;;;;;;;;;;;;;;22.84;67.80;97480.04;582409;243;64908;-70
2022/10/23 04:33:51;;;;;;;;;;;;;;;22.83;65.73;97479.25;582317;243;64923;-70
2022/10/23 04:36:30;;;;;;;;;;;;;;;22.83;66.95;97481.92;582265;243;47231;-72
2022/10/23 04:38:59;;;;;;;;;;;;;;;22.82;66.77;97480.30;582389;243;46814;-71
2022/10/23 04:41:26;;;;;;;;;;;;;;;22.81;65.00;97489.42;582345;243;65019;-71
2022/10/23 04:43:54;;;;;;;;;;;;;;;22.81;66.56;97494.78;582319;243;67113;-71
2022/10/23 04:46:22;;;;;;;;;;;;;;;22.80;66.37;97485.13;582330;243;64817;-71
2022/10/23 04:48:50;;;;;;;;;;;;;;;22.80;65.41;97485.13;582248;243;65732;-71
2022/10/23 04:51:35;;;;;;;;;;;;;;;22.81;66.49;97491.30;582396;243;40874;-71
2022/10/23 04:54:04;;;;;;;;;;;;;;;22.81;67.76;97485.95;582366;243;44174;-71
2022/10/23 04:56:37;;;;;;;;;;;;;;;22.78;65.53;97467.70;577029;243;45012;-71
2022/10/23 04:59:06;;;;;;;;;;;;;;;22.78;67.66;97487.29;582389;243;45984;-71
2022/10/23 05:01:34;;;;;;;;;;;;;;;22.79;67.52;97480.84;581583;243;66860;-71
2022/10/23 05:04:03;;;;;;;;;;;;;;;22.77;67.47;97480.30;580691;244;65732;-71
2022/10/23 05:06:33;;;;;;;;;;;;;;;22.77;67.22;97472.27;580724;243;45877;-71
2022/10/23 05:09:21;;;;;;;;;;;;;;;22.77;66.27;97480.30;580797;243;47896;-71
2022/10/23 05:12:02;;;;;;;;;;;;;;;22.77;66.55;97482.98;578464;244;47390;-71
2022/10/23 05:14:30;;;;;;;;;;;;;;;22.76;67.71;97484.07;580713;244;64909;-71
2022/10/23 05:17:05;;;;;;;;;;;;;;;22.76;68.35;97488.63;580712;244;67206;-71
2022/10/23 05:19:34;;;;;;;;;;;;;;;22.75;68.57;97506.59;578022;244;65067;-71
2022/10/23 05:22:02;;;;;;;;;;;;;;;22.73;63.11;97502.58;580664;244;72971;-71
2022/10/23 05:24:31;;;;;;;;;;;;;;;22.74;67.76;97509.53;580877;243;44274;-71
2022/10/23 05:27:00;;;;;;;;;;;;;;;22.73;65.47;97500.69;580673;244;65729;-71
2022/10/23 05:29:29;;;;;;;;;;;;;;;22.73;66.70;97508.73;580730;243;44363;-71
2022/10/23 05:31:58;;;;;;;;;;;;;;;22.73;68.16;97519.45;580708;244;64701;-71
2022/10/23 05:34:29;;;;;;;;;;;;;;;22.73;66.75;97527.48;580767;244;43428;-71
2022/10/23 05:36:56;;;;;;;;;;;;;;;22.74;67.17;97533.64;580710;244;64573;-71
2022/10/23 05:39:24;;;;;;;;;;;;;;;22.71;64.82;97534.98;580704;244;66965;-71
2022/10/23 05:41:53;;;;;;;;;;;;;;;22.71;66.23;97529.63;580650;244;65788;-71
2022/10/23 05:44:23;;;;;;;;;;;;;;;22.72;68.65;97539.26;580749;243;45612;-71
2022/10/23 05:46:55;;;;;;;;;;;;;;;22.71;67.64;97540.34;580180;243;47020;-71
2022/10/23 05:49:25;;;;;;;;;;;;;;;22.71;66.57;97542.22;578974;243;45016;-71
2022/10/23 05:52:13;;;;;;;;;;;;;;;22.70;66.68;97549.46;580785;243;48593;-71
2022/10/23 05:54:58;;;;;;;;;;;;;;;22.71;68.13;97547.58;580779;244;40245;-71
2022/10/23 05:57:29;;;;;;;;;;;;;;;22.69;66.02;97553.20;579921;243;45089;-71
2022/10/23 05:59:59;;;;;;;;;;;;;;;22.69;66.63;97561.23;580724;244;44302;-71
2022/10/23 06:02:28;;;;;;;;;;;;;;;22.69;65.38;97568.47;580756;244;49528;-71
2022/10/23 06:05:00;;;;;;;;;;;;;;;22.68;67.85;97565.00;580746;244;43893;-72
2022/10/23 06:07:38;;;;;;;;;;;;;;;22.68;67.87;97562.31;580765;243;45867;-71
2022/10/23 06:10:06;;;;;;;;;;;;;;;22.68;67.43;97561.52;580673;244;64520;-71
2022/10/23 06:12:36;;;;;;;;;;;;;;;22.67;67.80;97560.72;580732;244;46937;-71
2022/10/23 06:15:04;;;;;;;;;;;;;;;22.65;65.11;97565.53;580713;244;67198;-71
2022/10/23 06:17:33;;;;;;;;;;;;;;;22.64;65.42;97555.88;580888;243;43282;-71
2022/10/23 06:20:01;;;;;;;;;;;;;;;22.64;63.53;97563.11;580642;244;65687;-71
2022/10/23 06:22:30;;;;;;;;;;;;;;;22.64;63.59;97566.59;580705;244;64545;-71
2022/10/23 06:24:59;;;;;;;;;;;;;;;22.66;64.95;97574.37;580781;243;45635;-71
2022/10/23 06:27:27;;;;;;;;;;;;;;;22.66;64.56;97566.33;580661;244;65703;-71
2022/10/23 06:29:55;;;;;;;;;;;;;;;22.66;66.22;97569.81;580733;244;65019;-71
2022/10/23 06:32:23;;;;;;;;;;;;;;;22.66;65.76;97572.48;580635;244;67208;-71
2022/10/23 06:34:52;;;;;;;;;;;;;;;22.66;65.14;97580.52;580680;243;43048;-71
2022/10/23 06:37:21;;;;;;;;;;;;;;;22.65;64.76;97570.89;580695;241;67411;-71
2022/10/23 06:39:56;;;;;;;;;;;;;;;22.67;66.64;97578.64;580774;243;44284;-71
2022/10/23 06:42:30;;;;;;;;;;;;;;;22.66;64.19;97590.44;579302;243;46385;-71
2022/10/23 06:44:59;;;;;;;;;;;;;;;22.66;68.15;97596.59;580759;244;48206;-71
2022/10/23 06:47:29;;;;;;;;;;;;;;;22.64;64.73;97588.02;579038;244;48138;-71
2022/10/23 06:50:14;;;;;;;;;;;;;;;22.65;65.58;97595.00;580799;244;37365;-71
2022/10/23 06:52:42;;;;;;;;;;;;;;;22.65;66.34;97584.28;580688;244;67349;-71
2022/10/23 06:55:10;;;;;;;;;;;;;;;22.65;65.58;97586.97;580670;244;67539;-71
2022/10/23 06:57:39;;;;;;;;;;;;;;;22.64;63.72;97587.22;580674;244;62408;-71
2022/10/23 07:00:07;;;;;;;;;;;;;;;22.65;66.99;97589.64;580665;244;65098;-71
2022/10/23 07:02:36;;;;;;;;;;;;;;;22.65;65.39;97600.36;582154;243;44585;-71
2022/10/23 07:05:04;;;;;;;;;;;;;;;22.64;64.04;97597.94;582302;243;62735;-71
2022/10/23 07:07:31;;;;;;;;;;;;;;;22.64;65.30;97601.41;582311;243;64991;-71
2022/10/23 07:09:59;;;;;;;;;;;;;;;22.66;66.92;97595.80;582263;243;66892;-71
2022/10/23 07:12:28;;;;;;;;;;;;;;;22.63;65.49;97602.50;582517;243;42653;-71
2022/10/23 07:14:57;;;;;;;;;;;;;;;22.65;67.16;97611.08;582580;243;43204;-71
2022/10/23 07:17:25;;;;;;;;;;;;;;;22.64;67.59;97609.45;582331;243;66672;-72
2022/10/23 07:19:52;;;;;;;;;;;;;;;22.63;63.05;97601.70;582295;243;65111;-71
2022/10/23 07:22:20;;;;;;;;;;;;;;;22.63;64.55;97623.92;582260;243;66905;-71
2022/10/23 07:24:52;;;;;;;;;;;;;;;22.64;68.45;97638.92;582463;243;44187;-71
2022/10/23 07:27:21;;;;;;;;;;;;;;;22.63;67.47;97629.28;582359;243;44439;-71
2022/10/23 07:29:51;;;;;;;;;;;;;;;22.64;65.83;97646.16;582397;243;45564;-72
2022/10/23 07:32:19;;;;;;;;;;;;;;;22.63;65.93;97634.64;582347;243;66688;-72
2022/10/23 07:35:04;;;;;;;;;;;;;;;22.63;65.52;97618.57;582407;243;39935;-72
2022/10/23 07:37:34;;;;;;;;;;;;;;;22.62;65.85;97622.33;582347;243;45690;-71
2022/10/23 07:40:03;;;;;;;;;;;;;;;22.61;64.90;97620.70;582392;243;64591;-71
2022/10/23 07:42:31;;;;;;;;;;;;;;;22.61;66.24;97626.86;582306;243;65853;-71
2022/10/23 07:44:58;;;;;;;;;;;;;;;22.61;65.23;97620.70;582297;243;65008;-71
2022/10/23 07:47:26;;;;;;;;;;;;;;;22.62;68.82;97622.33;582250;243;65038;-72
2022/10/23 07:49:53;;;;;;;;;;;;;;;22.61;65.37;97628.73;582282;243;64888;-71
2022/10/23 07:52:21;;;;;;;;;;;;;;;22.60;68.36;97625.27;582360;243;67109;-71
2022/10/23 07:55:09;;;;;;;;;;;;;;;22.62;66.49;97625.01;582373;243;44284;-72
2022/10/23 07:57:38;;;;;;;;;;;;;;;22.61;67.61;97618.82;582337;243;43009;-72
2022/10/23 08:00:10;;;;;;;;;;;;;;;22.61;66.76;97620.70;582240;243;44403;-72
2022/10/23 08:02:39;;;;;;;;;;;;;;;22.59;64.56;97626.34;573498;245;44249;-71
2022/10/23 08:05:07;;;;;;;;;;;;;;;22.60;66.40;97635.18;579055;245;65729;-72
2022/10/23 08:07:36;;;;;;;;;;;;;;;22.60;66.98;97629.82;579132;244;44119;-71
2022/10/23 08:10:05;;;;;;;;;;;;;;;22.60;66.99;97632.50;579009;245;67386;-71
2022/10/23 08:12:33;;;;;;;;;;;;;;;22.58;67.17;97638.11;578974;244;65130;-71
2022/10/23 08:15:01;;;;;;;;;;;;;;;22.58;66.12;97640.79;579026;245;67150;-71
2022/10/23 08:17:30;;;;;;;;;;;;;;;22.59;65.96;97641.62;579069;244;45685;-72
2022/10/23 08:20:02;;;;;;;;;;;;;;;22.59;65.95;97633.58;578931;245;46620;-71
2022/10/23 08:22:33;;;;;;;;;;;;;;;22.59;66.80;97633.58;579193;244;45628;-71
2022/10/23 08:25:01;;;;;;;;;;;;;;;22.59;68.01;97641.62;579014;244;66994;-72
2022/10/23 08:27:29;;;;;;;;;;;;;;;22.56;64.14;97640.27;579074;245;64916;-72
2022/10/23 08:29:56;;;;;;;;;;;;;;;22.57;67.77;97631.16;579103;245;66787;-71
2022/10/23 08:32:24;;;;;;;;;;;;;;;22.57;65.39;97638.39;579053;245;64647;-71
2022/10/23 08:34:53;;;;;;;;;;;;;;;22.56;64.48;97632.23;579166;243;43394;-71
2022/10/23 08:37:22;;;;;;;;;;;;;;;22.57;67.60;97641.88;579036;245;67360;-72
2022/10/23 08:39:50;;;;;;;;;;;;;;;22.57;67.38;97639.19;579080;245;66719;-72
2022/10/23 08:42:21;;;;;;;;;;;;;;;22.54;63.82;97642.41;579173;244;43663;-71
2022/10/23 08:44:56;;;;;;;;;;;;;;;22.55;65.56;97644.00;579069;245;67422;-72
2022/10/23 08:47:29;;;;;;;;;;;;;;;22.56;67.40;97640.27;578994;244;67234;-72
2022/10/23 08:50:16;;;;;;;;;;;;;;;22.55;67.05;97635.17;579226;245;37225;-72
2022/10/23 08:52:51;;;;;;;;;;;;;;;22.55;66.63;97635.97;572725;247;64624;-71
2022/10/23 08:55:23;;;;;;;;;;;;;;;22.55;67.28;97632.48;579117;244;66479;-71
2022/10/23 08:57:54;;;;;;;;;;;;;;;22.56;65.60;97634.09;579048;245;65138;-71
2022/10/23 09:00:22;;;;;;;;;;;;;;;22.55;66.53;97635.17;578937;245;64541;-72
2022/10/23 09:02:51;;;;;;;;;;;;;;;22.55;67.81;97629.81;582229;243;64810;-72
2022/10/23 09:05:35;;;;;;;;;;;;;;;22.53;65.21;97629.27;582379;243;66069;-72
2022/10/23 09:08:05;;;;;;;;;;;;;;;22.54;65.53;97628.22;582389;243;64606;-71
2022/10/23 09:10:34;;;;;;;;;;;;;;;22.54;66.30;97622.86;582367;243;67649;-72
2022/10/23 09:13:06;;;;;;;;;;;;;;;22.52;66.86;97624.98;582337;243;65222;-72
2022/10/23 09:15:37;;;;;;;;;;;;;;;22.53;67.79;97624.70;581985;243;66898;-72
2022/10/23 09:18:09;;;;;;;;;;;;;;;22.53;67.14;97618.55;582227;243;65580;-72
2022/10/23 09:20:37;;;;;;;;;;;;;;;22.52;64.96;97627.67;582358;243;64857;-72
2022/10/23 09:23:06;;;;;;;;;;;;;;;22.53;67.33;97618.55;582328;243;65411;-72
2022/10/23 09:25:38;;;;;;;;;;;;;;;22.51;63.77;97616.16;582295;243;66719;-72
2022/10/23 09:28:06;;;;;;;;;;;;;;;22.51;64.84;97621.52;582322;243;65146;-71
2022/10/23 09:30:37;;;;;;;;;;;;;;;22.53;67.37;97623.91;582321;243;65231;-72
2022/10/23 09:33:25;;;;;;;;;;;;;;;22.52;67.80;97616.95;582340;243;66665;-72
2022/10/23 09:35:59;;;;;;;;;;;;;;;22.51;68.15;97610.80;582342;243;64935;-71
2022/10/23 09:38:28;;;;;;;;;;;;;;;22.51;67.43;97604.64;582385;243;67040;-71
2022/10/23 09:40:57;;;;;;;;;;;;;;;22.51;68.29;97610.00;582370;243;67508;-72
2022/10/23 09:43:26;;;;;;;;;;;;;;;22.49;63.29;97596.06;582322;243;62731;-71
2022/10/23 09:45:57;;;;;;;;;;;;;;;22.49;68.09;97596.86;582423;243;43154;-71
2022/10/23 09:48:25;;;;;;;;;;;;;;;22.49;65.62;97593.39;582322;243;66870;-71
2022/10/23 09:50:54;;;;;;;;;;;;;;;22.48;67.04;97592.59;582375;243;66238;-71
2022/10/23 09:53:26;;;;;;;;;;;;;;;22.49;68.21;97596.06;582344;243;66811;-72
2022/10/23 09:55:55;;;;;;;;;;;;;;;22.47;67.65;97598.99;582348;243;66642;-72
2022/10/23 09:58:24;;;;;;;;;;;;;;;22.49;68.38;97588.03;582337;243;64891;-72
2022/10/23 10:00:52;;;;;;;;;;;;;;;22.47;66.80;97593.64;581719;243;64427;-71
2022/10/23 10:03:21;;;;;;;;;;;;;;;22.47;66.30;97598.20;580759;244;66642;-71
2022/10/23 10:06:00;;;;;;;;;;;;;;;22.47;66.83;97582.92;580836;243;43932;-71
2022/10/23 10:08:32;;;;;;;;;;;;;;;22.46;65.54;97575.97;580716;244;66832;-71
2022/10/23 10:11:01;;;;;;;;;;;;;;;22.46;64.73;97581.33;580115;244;65416;-71
2022/10/23 10:13:36;;;;;;;;;;;;;;;22.46;65.57;97577.85;580693;244;64921;-71
2022/10/23 10:16:06;;;;;;;;;;;;;;;22.48;67.31;97578.37;580457;244;64356;-71
2022/10/23 10:18:43;;;;;;;;;;;;;;;22.48;66.43;97573.01;580769;244;48078;-71
2022/10/23 10:21:18;;;;;;;;;;;;;;;22.47;66.36;97556.14;580688;244;62770;-71
2022/10/23 10:23:56;;;;;;;;;;;;;;;22.46;65.44;97569.81;580681;244;66670;-71
2022/10/23 10:26:31;;;;;;;;;;;;;;;22.44;64.77;97567.39;578966;244;64630;-71
2022/10/23 10:29:03;;;;;;;;;;;;;;;22.46;67.22;97569.81;580681;244;66017;-71
2022/10/23 10:31:32;;;;;;;;;;;;;;;22.46;67.58;97559.11;580382;244;64638;-71
2022/10/23 10:34:16;;;;;;;;;;;;;;;22.46;68.16;97561.78;580519;244;65512;-71
2022/10/23 10:36:48;;;;;;;;;;;;;;;22.45;68.63;97546.77;580458;244;64986;-71
2022/10/23 10:39:17;;;;;;;;;;;;;;;22.44;67.48;97550.52;580670;244;70110;-71
2022/10/23 10:41:46;;;;;;;;;;;;;;;22.43;64.91;97540.89;580103;244;67611;-71
2022/10/23 10:44:16;;;;;;;;;;;;;;;22.43;67.26;97557.77;580479;244;64912;-71
2022/10/23 10:46:48;;;;;;;;;;;;;;;22.43;68.11;97559.64;580672;244;67128;-71
2022/10/23 10:49:25;;;;;;;;;;;;;;;22.43;66.47;97549.73;580601;244;64568;-71
2022/10/23 10:52:19;;;;;;;;;;;;;;;22.42;67.14;97548.10;580832;244;38108;-71
2022/10/23 10:54:53;;;;;;;;;;;;;;;22.42;66.16;97531.23;580685;244;66808;-71
2022/10/23 10:57:23;;;;;;;;;;;;;;;22.42;64.34;97548.10;580539;244;67635;-70
2022/10/23 10:59:52;;;;;;;;;;;;;;;22.42;67.57;97536.59;580679;242;63822;-70
2022/10/23 11:02:27;;;;;;;;;;;;;;;22.42;68.02;97537.39;580693;244;67306;-71
2022/10/23 11:05:02;;;;;;;;;;;;;;;22.42;67.35;97539.27;580728;244;66738;-71
2022/10/23 11:07:31;;;;;;;;;;;;;;;22.42;66.74;97547.30;580721;244;62985;-71
2022/10/23 11:10:00;;;;;;;;;;;;;;;22.40;66.51;97534.20;580581;244;65564;-71
2022/10/23 11:12:28;;;;;;;;;;;;;;;22.40;65.55;97534.20;580692;244;66697;-71
2022/10/23 11:14:56;;;;;;;;;;;;;;;22.40;65.16;97539.55;580693;244;64994;-71
2022/10/23 11:17:28;;;;;;;;;;;;;;;22.41;65.93;97535.80;580671;244;64969;-71
2022/10/23 11:20:06;;;;;;;;;;;;;;;22.41;65.71;97535.00;580573;244;64627;-71
2022/10/23 11:22:38;;;;;;;;;;;;;;;22.41;67.12;97535.00;580418;244;66136;-71
2022/10/23 11:25:13;;;;;;;;;;;;;;;22.42;67.50;97539.27;580703;244;66824;-71
2022/10/23 11:27:59;;;;;;;;;;;;;;;22.41;67.97;97537.67;580736;244;67139;-71
2022/10/23 11:30:32;;;;;;;;;;;;;;;22.39;66.38;97537.92;580668;244;65631;-71
2022/10/23 11:33:19;;;;;;;;;;;;;;;22.39;67.16;97517.30;577752;244;64427;-71
2022/10/23 11:36:01;;;;;;;;;;;;;;;22.40;68.72;97518.13;580694;244;66873;-71
2022/10/23 11:38:36;;;;;;;;;;;;;;;22.39;68.04;97522.66;580694;244;63997;-71
2022/10/23 11:41:05;;;;;;;;;;;;;;;22.37;66.71;97516.79;580744;244;63991;-71
2022/10/23 11:43:37;;;;;;;;;;;;;;;22.38;67.54;97521.06;580714;244;66316;-71
2022/10/23 11:46:12;;;;;;;;;;;;;;;22.37;66.27;97516.79;577677;244;66355;-71
2022/10/23 11:48:42;;;;;;;;;;;;;;;22.37;66.58;97522.14;580051;244;64151;-72
2022/10/23 11:51:26;;;;;;;;;;;;;;;22.36;66.37;97522.39;580432;243;66870;-73
2022/10/23 11:53:55;;;;;;;;;;;;;;;22.36;65.15;97517.84;580519;244;65354;-71
2022/10/23 11:56:26;;;;;;;;;;;;;;;22.36;65.63;97509.80;580410;244;66688;-71
2022/10/23 11:58:57;;;;;;;;;;;;;;;22.37;68.21;97513.28;580671;244;67099;-71
2022/10/23 12:01:35;;;;;;;;;;;;;;;22.36;67.59;97512.48;580618;244;65127;-71
2022/10/23 12:04:04;;;;;;;;;;;;;;;22.36;67.19;97509.01;580716;244;67141;-71
2022/10/23 12:06:33;;;;;;;;;;;;;;;22.35;67.05;97513.56;580678;244;64801;-71
2022/10/23 12:09:02;;;;;;;;;;;;;;;22.36;67.02;97509.01;580279;244;64104;-71
2022/10/23 12:11:44;;;;;;;;;;;;;;;22.35;67.09;97508.21;580614;243;66899;-71
2022/10/23 12:14:29;;;;;;;;;;;;;;;22.35;67.91;97494.82;580507;244;67578;-71
2022/10/23 12:16:57;;;;;;;;;;;;;;;22.33;66.61;97499.63;580692;244;62954;-71
2022/10/23 12:19:26;;;;;;;;;;;;;;;22.34;64.11;97497.75;580728;244;66884;-70
2022/10/23 12:21:55;;;;;;;;;;;;;;;22.35;66.08;97488.67;580692;244;66673;-71
2022/10/23 12:24:30;;;;;;;;;;;;;;;22.34;65.35;97497.75;580686;244;64978;-71
2022/10/23 12:27:02;;;;;;;;;;;;;;;22.34;67.74;97498.58;580735;244;64473;-71
2022/10/23 12:29:44;;;;;;;;;;;;;;;22.34;67.38;97501.26;580677;244;66999;-70
2022/10/23 12:32:19;;;;;;;;;;;;;;;22.35;68.87;97502.05;580677;244;62917;-71
2022/10/23 12:34:48;;;;;;;;;;;;;;;22.33;68.23;97502.31;580687;244;64639;-71
2022/10/23 12:37:20;;;;;;;;;;;;;;;22.32;67.37;97505.27;580545;244;64640;-72
2022/10/23 12:39:49;;;;;;;;;;;;;;;22.33;70.21;97512.22;580675;244;65065;-71
2022/10/23 12:42:18;;;;;;;;;;;;;;;22.32;66.86;97506.07;580376;244;66995;-71
2022/10/23 12:44:47;;;;;;;;;;;;;;;22.32;67.82;97503.39;580603;244;66663;-70
2022/10/23 12:47:17;;;;;;;;;;;;;;;22.31;65.17;97512.48;580371;244;64890;-72
2022/10/23 12:49:49;;;;;;;;;;;;;;;22.32;65.18;97505.27;580687;244;64755;-71
2022/10/23 12:52:18;;;;;;;;;;;;;;;22.31;66.04;97507.13;580609;244;64608;-70
2022/10/23 12:54:46;;;;;;;;;;;;;;;22.31;66.94;97509.80;580649;244;65174;-71
2022/10/23 12:57:27;;;;;;;;;;;;;;;22.31;66.44;97503.65;580749;244;64872;-70
2022/10/23 12:59:59;;;;;;;;;;;;;;;22.31;67.67;97500.97;580637;244;66875;-71
2022/10/23 13:02:28;;;;;;;;;;;;;;;22.31;66.50;97495.61;580612;244;63883;-72
2022/10/23 13:04:57;;;;;;;;;;;;;;;22.31;67.83;97493.73;580697;244;67367;-71
2022/10/23 13:07:28;;;;;;;;;;;;;;;22.30;66.12;97508.20;580640;244;67159;-71